Time;durP1;ratioP1;P1;durP2;ratioP2;P2;SDS_P1;SDS_P2;PMS_P1;PMS_P2;Temp;Humidity;BMP_temperature;BMP_pressure;BME280_temperature;BME280_humidity;BME280_pressure;Samples;Min_cycle;Max_cycle;Signal;HPM_P1;HPM_P2
2022/04/25 00:01:13;;;;;;;16.02;7.78;;;7.90;99.90;;;;;;5072031;28;20052;-84
2022/04/25 00:03:38;;;;;;;17.15;8.63;;;8.00;99.90;;;;;;5044414;28;20068;-83
2022/04/25 00:06:05;;;;;;;14.45;8.23;;;8.00;99.90;;;;;;5072230;28;20379;-83
2022/04/25 00:08:30;;;;;;;14.57;7.88;;;8.20;99.90;;;;;;5054530;28;20045;-83
2022/04/25 00:10:56;;;;;;;14.20;8.00;;;8.10;99.90;;;;;;5037571;28;20071;-83
2022/04/25 00:13:23;;;;;;;13.90;8.77;;;8.10;99.90;;;;;;5063868;28;20056;-83
2022/04/25 00:15:49;;;;;;;14.80;8.60;;;8.20;99.90;;;;;;5056599;28;20064;-83
2022/04/25 00:18:15;;;;;;;15.00;7.93;;;8.20;99.90;;;;;;5057629;28;20486;-84
2022/04/25 00:20:41;;;;;;;12.98;8.00;;;8.30;99.90;;;;;;5057916;28;20048;-83
2022/04/25 00:23:07;;;;;;;15.65;8.80;;;8.20;99.90;;;;;;5057672;28;20086;-84
2022/04/25 00:25:34;;;;;;;15.82;8.75;;;8.30;99.90;;;;;;5057525;28;20056;-83
2022/04/25 00:28:01;;;;;;;14.00;8.80;;;8.30;99.90;;;;;;5075235;28;20048;-83
2022/04/25 00:30:28;;;;;;;14.35;8.10;;;8.30;99.90;;;;;;5057278;28;20136;-87
2022/04/25 00:32:58;;;;;;;16.15;8.63;;;8.30;99.90;;;;;;5074904;28;20402;-84
2022/04/25 00:35:24;;;;;;;12.45;8.73;;;8.30;99.90;;;;;;5075206;28;20040;-84
2022/04/25 00:37:51;;;;;;;15.18;9.05;;;8.30;99.90;;;;;;5057492;28;20048;-87
2022/04/25 00:40:22;;;;;;;14.50;9.52;;;8.30;99.90;;;;;;5056951;28;20510;-84
2022/04/25 00:42:49;;;;;;;14.95;9.50;;;8.40;99.90;;;;;;5057183;28;20141;-83
2022/04/25 00:45:15;;;;;;;15.57;8.88;;;8.30;99.90;;;;;;5074676;28;20094;-85
2022/04/25 00:47:42;;;;;;;16.92;9.30;;;8.30;99.90;;;;;;5056615;28;20490;-85
2022/04/25 00:50:09;;;;;;;13.27;8.88;;;8.30;99.90;;;;;;5040564;28;20534;-83
2022/04/25 00:52:35;;;;;;;17.55;9.73;;;8.30;99.90;;;;;;5057444;28;20079;-84
2022/04/25 00:55:03;;;;;;;13.82;9.35;;;8.30;99.90;;;;;;5074877;28;20044;-83
2022/04/25 00:57:31;;;;;;;14.60;9.65;;;8.20;99.90;;;;;;5029016;28;20053;-83
2022/04/25 01:00:01;;;;;;;16.10;8.98;;;8.20;99.90;;;;;;5070453;28;20048;-83
2022/04/25 01:02:27;;;;;;;18.98;10.48;;;8.30;99.90;;;;;;5047237;28;20467;-83
2022/04/25 01:04:56;;;;;;;20.08;11.07;;;8.30;99.90;;;;;;5057128;28;20060;-85
2022/04/25 01:07:22;;;;;;;19.02;11.73;;;8.20;99.90;;;;;;5073232;28;20474;-84
2022/04/25 01:09:47;;;;;;;19.13;11.85;;;8.10;99.90;;;;;;5072995;28;20080;-84
2022/04/25 01:12:13;;;;;;;17.77;11.07;;;8.00;99.90;;;;;;5055370;28;20048;-84
2022/04/25 01:14:39;;;;;;;19.30;12.02;;;7.90;99.90;;;;;;5039859;28;20094;-86
2022/04/25 01:17:05;;;;;;;17.30;10.57;;;7.80;99.90;;;;;;5074282;28;20553;-85
2022/04/25 01:19:31;;;;;;;19.08;11.55;;;7.80;99.90;;;;;;5074285;28;20060;-84
2022/04/25 01:22:10;;;;;;;23.30;12.52;;;7.80;99.90;;;;;;5074960;28;20065;-84
2022/04/25 01:27:19;;;;;;;18.80;12.77;;;7.70;99.90;;;;;;5074822;28;20053;-84
2022/04/25 01:29:54;;;;;;;23.63;12.20;;;7.70;99.90;;;;;;5058728;28;20123;-85
2022/04/25 01:32:24;;;;;;;23.92;13.15;;;7.70;99.90;;;;;;5076433;28;20048;-82
2022/04/25 01:34:50;;;;;;;21.02;13.18;;;7.60;99.90;;;;;;5076590;28;20051;-83
2022/04/25 01:37:19;;;;;;;22.63;13.82;;;7.60;99.90;;;;;;5076989;28;20044;-85
2022/04/25 01:39:50;;;;;;;20.42;12.57;;;7.60;99.90;;;;;;5076550;28;20045;-84
2022/04/25 01:42:18;;;;;;;18.92;13.20;;;7.60;99.90;;;;;;5077517;28;20126;-84
2022/04/25 01:44:44;;;;;;;20.67;13.27;;;7.60;99.90;;;;;;5077117;28;20105;-84
2022/04/25 01:47:11;;;;;;;22.73;11.85;;;7.60;99.90;;;;;;5058594;28;20056;-86
2022/04/25 01:49:38;;;;;;;21.95;14.20;;;7.60;99.90;;;;;;5075402;28;20053;-83
2022/04/25 01:52:17;;;;;;;19.05;13.75;;;7.60;99.90;;;;;;5058120;28;20047;-82
2022/04/25 01:54:43;;;;;;;18.50;13.00;;;7.60;99.90;;;;;;5057026;28;20457;-84
2022/04/25 01:57:08;;;;;;;24.35;14.07;;;7.60;99.90;;;;;;5057086;28;20084;-84
2022/04/25 01:59:35;;;;;;;23.13;14.02;;;7.60;99.90;;;;;;5074543;28;20494;-84
2022/04/25 02:02:04;;;;;;;28.20;15.18;;;7.60;99.90;;;;;;5074103;28;20057;-84
2022/04/25 02:04:30;;;;;;;26.48;14.60;;;7.60;99.90;;;;;;5045297;28;20096;-84
2022/04/25 02:06:56;;;;;;;26.35;16.00;;;7.60;99.90;;;;;;5039425;28;20095;-84
2022/04/25 02:09:22;;;;;;;24.20;14.68;;;7.60;99.90;;;;;;5072455;28;20040;-86
2022/04/25 02:11:48;;;;;;;25.80;15.32;;;7.60;99.90;;;;;;5073460;28;20053;-84
2022/04/25 02:14:14;;;;;;;21.60;13.57;;;7.60;99.90;;;;;;5070965;28;20052;-84
2022/04/25 02:16:40;;;;;;;23.70;14.80;;;7.60;99.90;;;;;;5036015;28;20049;-85
2022/04/25 02:19:06;;;;;;;24.33;14.00;;;7.70;99.90;;;;;;5019014;28;20056;-84
2022/04/25 02:21:32;;;;;;;21.95;15.10;;;7.60;99.90;;;;;;5034609;28;20052;-84
2022/04/25 02:23:57;;;;;;;21.50;14.18;;;7.60;99.90;;;;;;5035376;28;20056;-84
2022/04/25 02:26:24;;;;;;;23.23;15.85;;;7.60;99.90;;;;;;5034904;28;20409;-84
2022/04/25 02:28:49;;;;;;;26.15;17.10;;;7.70;99.90;;;;;;5019112;28;20518;-84
2022/04/25 02:31:15;;;;;;;26.02;14.38;;;7.70;99.90;;;;;;5035038;28;20037;-85
2022/04/25 02:33:41;;;;;;;23.45;15.68;;;7.70;99.90;;;;;;5018950;28;20060;-84
2022/04/25 02:36:08;;;;;;;28.77;17.15;;;7.70;99.90;;;;;;5035223;28;20051;-84
2022/04/25 02:38:36;;;;;;;24.05;14.57;;;7.70;99.90;;;;;;5052077;28;20516;-84
2022/04/25 02:41:05;;;;;;;29.08;15.88;;;7.80;99.90;;;;;;5034976;28;20056;-84
2022/04/25 02:43:39;;;;;;;21.83;14.65;;;7.70;99.90;;;;;;5035074;28;20055;-84
2022/04/25 02:46:07;;;;;;;23.42;15.50;;;7.70;99.90;;;;;;5052534;28;20053;-83
2022/04/25 02:48:34;;;;;;;25.55;16.40;;;7.70;99.90;;;;;;5018754;28;20479;-83
2022/04/25 02:51:01;;;;;;;23.65;14.82;;;7.70;99.90;;;;;;5050543;28;20057;-84
2022/04/25 02:53:27;;;;;;;24.35;15.88;;;7.70;99.90;;;;;;5018163;28;20055;-84
2022/04/25 02:55:53;;;;;;;24.30;15.20;;;7.70;99.90;;;;;;5052801;28;20052;-84
2022/04/25 02:58:23;;;;;;;22.25;14.98;;;7.60;99.90;;;;;;5052792;28;20040;-84
2022/04/25 03:00:49;;;;;;;21.25;14.65;;;7.60;99.90;;;;;;5018587;28;20049;-84
2022/04/25 03:03:20;;;;;;;20.17;13.77;;;7.60;99.90;;;;;;5007628;28;20053;-86
2022/04/25 03:05:50;;;;;;;23.10;14.52;;;7.60;99.90;;;;;;5034736;28;20053;-83
2022/04/25 03:08:19;;;;;;;21.80;14.83;;;7.40;99.90;;;;;;5034448;28;20059;-84
2022/04/25 03:10:45;;;;;;;21.20;13.30;;;7.50;99.90;;;;;;5018067;28;20352;-89
2022/04/25 03:13:12;;;;;;;20.13;13.07;;;7.60;99.90;;;;;;5034668;28;20053;-84
2022/04/25 03:15:39;;;;;;;20.67;14.18;;;7.70;99.90;;;;;;5034435;28;20037;-83
2022/04/25 03:18:16;;;;;;;23.17;13.95;;;7.60;99.90;;;;;;5052487;28;20462;-84
2022/04/25 03:20:48;;;;;;;23.88;13.80;;;7.60;99.90;;;;;;5032443;28;20057;-84
2022/04/25 03:23:17;;;;;;;23.23;13.45;;;7.60;99.90;;;;;;5014803;28;20183;-85
2022/04/25 03:25:43;;;;;;;25.45;14.00;;;7.60;99.90;;;;;;5014895;28;20049;-84
2022/04/25 03:28:09;;;;;;;22.52;13.43;;;7.50;99.90;;;;;;5032427;28;20503;-84
2022/04/25 03:30:34;;;;;;;26.58;13.45;;;7.50;99.90;;;;;;4997227;28;20064;-84
2022/04/25 03:33:00;;;;;;;20.88;12.95;;;7.50;99.90;;;;;;5032695;28;20160;-84
2022/04/25 03:35:26;;;;;;;22.40;13.60;;;7.50;99.90;;;;;;4998202;28;20057;-83
2022/04/25 03:37:52;;;;;;;24.90;13.05;;;7.50;99.90;;;;;;5031962;28;20041;-83
2022/04/25 03:40:19;;;;;;;22.67;13.10;;;7.60;99.90;;;;;;5014586;28;20053;-83
2022/04/25 03:42:45;;;;;;;23.42;14.50;;;7.50;99.90;;;;;;4998396;28;20140;-83
2022/04/25 03:45:16;;;;;;;19.05;12.90;;;7.60;99.90;;;;;;5014622;28;20038;-84
2022/04/25 03:47:42;;;;;;;25.70;13.02;;;7.50;99.90;;;;;;5014882;28;20041;-83
2022/04/25 03:50:09;;;;;;;21.42;13.43;;;7.60;99.90;;;;;;5035135;28;20394;-85
2022/04/25 03:52:36;;;;;;;20.10;11.80;;;7.50;99.90;;;;;;5018417;28;20053;-84
2022/04/25 03:57:55;;;;;;;20.38;12.75;;;7.50;99.90;;;;;;5035743;28;20137;-84
2022/04/25 04:00:21;;;;;;;24.80;14.05;;;7.50;99.90;;;;;;5017999;28;20103;-83
2022/04/25 04:02:47;;;;;;;20.85;11.23;;;7.50;99.90;;;;;;5017598;28;20127;-83
2022/04/25 04:05:13;;;;;;;22.70;13.73;;;7.50;99.90;;;;;;4991942;28;20065;-84
2022/04/25 04:07:39;;;;;;;26.10;13.80;;;7.50;99.90;;;;;;5018157;28;20492;-84
2022/04/25 04:10:06;;;;;;;24.50;13.27;;;7.50;99.90;;;;;;5035772;28;20048;-84
2022/04/25 04:12:32;;;;;;;23.15;12.50;;;7.50;99.90;;;;;;5031674;28;20058;-84
2022/04/25 04:14:59;;;;;;;20.85;13.27;;;7.50;99.90;;;;;;5031499;28;20045;-83
2022/04/25 04:17:28;;;;;;;20.35;12.60;;;7.50;99.90;;;;;;5035160;28;20073;-85
2022/04/25 04:19:53;;;;;;;24.00;13.38;;;7.50;99.90;;;;;;5034266;28;20195;-84
2022/04/25 04:22:22;;;;;;;20.35;12.93;;;7.40;99.90;;;;;;5017427;28;20085;-84
2022/04/25 04:24:48;;;;;;;23.52;13.40;;;7.40;99.90;;;;;;5035154;28;20053;-84
2022/04/25 04:27:14;;;;;;;21.08;13.07;;;7.50;99.90;;;;;;5034706;28;20483;-85
2022/04/25 04:29:41;;;;;;;22.48;12.82;;;7.40;99.90;;;;;;5001071;28;20417;-83
2022/04/25 04:32:07;;;;;;;26.02;13.43;;;7.40;99.90;;;;;;5035181;28;20050;-84
2022/04/25 04:34:36;;;;;;;21.30;12.45;;;7.40;99.90;;;;;;5017727;28;20057;-84
2022/04/25 04:37:03;;;;;;;20.75;12.65;;;7.50;99.90;;;;;;5035348;28;20510;-83
2022/04/25 04:39:31;;;;;;;21.10;12.43;;;7.50;99.90;;;;;;5035451;28;20095;-83
2022/04/25 04:41:57;;;;;;;23.17;13.05;;;7.50;99.90;;;;;;5017736;28;20132;-84
2022/04/25 04:44:22;;;;;;;20.60;11.85;;;7.50;99.90;;;;;;5033742;28;20120;-84
2022/04/25 04:46:48;;;;;;;25.55;13.13;;;7.50;99.90;;;;;;5033122;28;20313;-84
2022/04/25 04:49:15;;;;;;;25.17;13.52;;;7.50;99.90;;;;;;5032858;28;20145;-84
2022/04/25 04:51:40;;;;;;;23.15;12.48;;;7.60;99.90;;;;;;5017097;28;20041;-84
2022/04/25 04:54:06;;;;;;;22.55;12.45;;;7.60;99.90;;;;;;5017592;28;20402;-84
2022/04/25 04:56:32;;;;;;;20.17;12.27;;;7.80;99.90;;;;;;5034971;28;20530;-83
2022/04/25 04:58:59;;;;;;;18.23;11.15;;;7.60;99.90;;;;;;5017450;28;20068;-84
2022/04/25 05:01:26;;;;;;;19.30;11.48;;;7.60;99.90;;;;;;5016221;28;20041;-84
2022/04/25 05:03:58;;;;;;;19.13;11.95;;;7.60;99.90;;;;;;5034488;28;20057;-84
2022/04/25 05:06:28;;;;;;;21.15;12.93;;;7.60;99.90;;;;;;4974040;28;20057;-83
2022/04/25 05:08:54;;;;;;;19.08;11.80;;;7.60;99.90;;;;;;5017283;28;20132;-84
2022/04/25 05:11:21;;;;;;;22.17;11.95;;;7.60;99.90;;;;;;4999785;28;20049;-85
2022/04/25 05:13:48;;;;;;;25.25;12.25;;;7.70;99.90;;;;;;5016873;28;20422;-84
2022/04/25 05:16:14;;;;;;;19.23;11.82;;;7.80;99.90;;;;;;5000385;28;20046;-84
2022/04/25 05:18:40;;;;;;;19.33;11.43;;;7.70;99.90;;;;;;5032782;28;20053;-88
2022/04/25 05:21:05;;;;;;;19.55;11.68;;;7.70;99.90;;;;;;5033409;28;20084;-84
2022/04/25 05:23:31;;;;;;;17.15;11.15;;;7.70;99.90;;;;;;5054204;28;20128;-84
2022/04/25 05:25:58;;;;;;;23.30;12.50;;;7.80;99.90;;;;;;5036807;28;20044;-84
2022/04/25 05:28:25;;;;;;;20.10;11.77;;;7.80;99.90;;;;;;5035990;28;20095;-83
2022/04/25 05:30:51;;;;;;;21.10;11.98;;;7.80;99.90;;;;;;5035611;28;20120;-84
2022/04/25 05:33:18;;;;;;;19.83;11.80;;;7.90;99.90;;;;;;5036093;28;20131;-85
2022/04/25 05:35:44;;;;;;;20.02;11.13;;;7.90;99.90;;;;;;5019754;28;20504;-84
2022/04/25 05:38:11;;;;;;;19.38;10.95;;;8.00;99.90;;;;;;5054085;28;20044;-84
2022/04/25 05:40:41;;;;;;;18.58;10.95;;;8.00;99.90;;;;;;5053861;28;20509;-84
2022/04/25 05:43:08;;;;;;;14.13;10.25;;;8.10;99.90;;;;;;5053842;28;20052;-83
2022/04/25 05:45:34;;;;;;;18.92;10.73;;;8.10;99.90;;;;;;5035799;28;20103;-84
2022/04/25 05:48:00;;;;;;;17.98;10.65;;;8.20;99.90;;;;;;5036230;28;20052;-83
2022/04/25 05:53:16;;;;;;;19.00;11.00;;;8.20;99.90;;;;;;5036037;28;20118;-83
2022/04/25 05:55:44;;;;;;;17.73;11.32;;;8.20;99.90;;;;;;5035802;28;20049;-85
2022/04/25 05:58:10;;;;;;;16.80;10.63;;;8.20;99.90;;;;;;5053741;28;20469;-83
2022/04/25 06:00:35;;;;;;;18.55;11.52;;;8.20;99.90;;;;;;5053469;28;20275;-84
2022/04/25 06:03:02;;;;;;;18.83;11.20;;;8.20;99.90;;;;;;5036207;28;20118;-83
2022/04/25 06:05:28;;;;;;;22.50;10.80;;;8.20;99.90;;;;;;5026354;28;20072;-84
2022/04/25 06:07:54;;;;;;;19.13;10.75;;;8.30;99.90;;;;;;5053399;28;20044;-83
2022/04/25 06:10:22;;;;;;;15.57;10.52;;;8.20;99.90;;;;;;5019261;28;20124;-84
2022/04/25 06:12:50;;;;;;;19.45;11.02;;;8.50;99.90;;;;;;5053507;28;20047;-85
2022/04/25 06:15:17;;;;;;;18.73;10.90;;;8.30;99.90;;;;;;5052717;28;20118;-84
2022/04/25 06:17:43;;;;;;;22.13;11.43;;;8.60;99.90;;;;;;5019315;28;20139;-84
2022/04/25 06:20:10;;;;;;;20.98;10.77;;;8.50;99.90;;;;;;5018880;28;20477;-85
2022/04/25 06:22:39;;;;;;;17.63;10.90;;;8.60;99.90;;;;;;5035796;28;20041;-84
2022/04/25 06:25:05;;;;;;;16.63;9.77;;;8.70;99.90;;;;;;5053079;28;20037;-83
2022/04/25 06:27:31;;;;;;;19.30;11.10;;;8.80;99.90;;;;;;5034923;28;20084;-83
2022/04/25 06:29:57;;;;;;;20.02;11.07;;;8.80;99.90;;;;;;5051010;28;20107;-84
2022/04/25 06:32:24;;;;;;;17.50;10.57;;;8.80;99.90;;;;;;5053265;28;20045;-86
2022/04/25 06:34:50;;;;;;;17.45;10.05;;;8.80;99.90;;;;;;5053202;28;20045;-84
2022/04/25 06:37:16;;;;;;;15.43;10.10;;;8.80;99.90;;;;;;5018415;28;20198;-86
2022/04/25 06:39:42;;;;;;;15.55;10.00;;;8.80;99.90;;;;;;5052939;28;20044;-85
2022/04/25 06:42:12;;;;;;;15.68;9.65;;;8.70;99.90;;;;;;5035166;28;20057;-84
2022/04/25 06:44:38;;;;;;;17.35;10.45;;;9.00;99.90;;;;;;5052023;28;20045;-88
2022/04/25 06:47:04;;;;;;;21.10;10.82;;;9.00;99.90;;;;;;5035428;28;20067;-84
2022/04/25 06:49:30;;;;;;;17.80;10.57;;;9.00;99.90;;;;;;5052645;28;20101;-83
2022/04/25 06:51:58;;;;;;;20.20;11.93;;;9.10;99.90;;;;;;5052618;28;20057;-83
2022/04/25 06:54:26;;;;;;;31.73;12.65;;;9.30;99.90;;;;;;5052695;28;20110;-83
2022/04/25 06:56:54;;;;;;;35.95;12.63;;;9.10;99.90;;;;;;5034964;28;20111;-84
2022/04/25 06:59:20;;;;;;;22.35;10.95;;;9.20;99.90;;;;;;5034660;28;20127;-84
2022/04/25 07:01:47;;;;;;;20.30;11.75;;;9.10;99.90;;;;;;5052390;28;20502;-85
2022/04/25 07:04:13;;;;;;;22.27;11.23;;;9.10;99.90;;;;;;5035160;28;20053;-83
2022/04/25 07:06:39;;;;;;;19.80;13.00;;;9.10;99.90;;;;;;5008704;28;20057;-83
2022/04/25 07:09:06;;;;;;;22.92;13.40;;;9.10;99.90;;;;;;5035085;28;20455;-84
2022/04/25 07:11:33;;;;;;;22.13;13.02;;;9.30;99.90;;;;;;5051188;28;20128;-84
2022/04/25 07:14:00;;;;;;;25.00;13.35;;;9.20;99.90;;;;;;5034766;28;20049;-83
2022/04/25 07:16:27;;;;;;;23.75;14.15;;;9.20;99.90;;;;;;5015307;28;20049;-83
2022/04/25 07:18:52;;;;;;;24.23;15.65;;;9.20;99.90;;;;;;5014911;28;20068;-84
2022/04/25 07:29:35;;;;;;;19.25;12.80;;;9.00;99.90;;;;;;5042434;28;20048;-84
2022/04/25 07:32:00;;;;;;;21.75;13.35;;;8.90;99.90;;;;;;5063460;28;20068;-83
2022/04/25 07:34:26;;;;;;;19.17;12.48;;;8.90;99.90;;;;;;5034524;28;20048;-83
2022/04/25 07:36:53;;;;;;;21.58;13.27;;;8.90;99.90;;;;;;5052150;28;20044;-84
2022/04/25 07:39:22;;;;;;;19.88;13.20;;;9.10;99.90;;;;;;5052406;28;20084;-84
2022/04/25 07:41:50;;;;;;;19.33;12.77;;;9.10;99.90;;;;;;5018245;28;20114;-86
2022/04/25 07:44:17;;;;;;;24.20;13.52;;;9.20;99.90;;;;;;5016212;28;20045;-85
2022/04/25 07:46:44;;;;;;;23.95;13.48;;;9.30;99.90;;;;;;5034691;28;20053;-85
2022/04/25 07:49:10;;;;;;;21.63;14.13;;;9.20;99.90;;;;;;5031410;28;20768;-85
2022/04/25 07:51:40;;;;;;;19.55;13.43;;;9.20;99.90;;;;;;5042948;28;20069;-86
2022/04/25 07:54:08;;;;;;;20.98;12.73;;;9.20;99.90;;;;;;5061703;28;20106;-85
2022/04/25 07:56:34;;;;;;;23.42;14.30;;;9.20;99.90;;;;;;5056290;28;20094;-84
2022/04/25 07:59:00;;;;;;;21.75;14.23;;;9.30;99.90;;;;;;5053805;28;20037;-86
2022/04/25 08:01:29;;;;;;;22.92;15.25;;;9.20;99.90;;;;;;5054580;28;20418;-85
2022/04/25 08:03:56;;;;;;;25.90;14.40;;;9.00;99.90;;;;;;5046664;28;20049;-85
2022/04/25 08:06:22;;;;;;;20.40;14.23;;;9.10;99.90;;;;;;5013844;28;20504;-85
2022/04/25 08:08:53;;;;;;;21.83;14.02;;;8.90;99.90;;;;;;5049918;28;20441;-87
2022/04/25 08:11:20;;;;;;;26.13;15.25;;;8.80;99.90;;;;;;5048674;28;20049;-87
2022/04/25 08:19:15;;;;;;;24.48;16.38;;;8.30;99.90;;;;;;5053308;28;20053;-87
2022/04/25 08:21:42;;;;;;;21.60;13.80;;;8.10;99.90;;;;;;5070939;28;20064;-88
2022/04/25 08:24:09;;;;;;;26.30;14.27;;;8.00;99.90;;;;;;5072801;28;20048;-86
2022/04/25 08:26:35;;;;;;;22.65;13.60;;;8.00;99.90;;;;;;5073191;28;20056;-86
2022/04/25 08:29:01;;;;;;;21.90;13.50;;;7.90;99.90;;;;;;5066251;28;20037;-86
2022/04/25 08:31:27;;;;;;;22.88;13.02;;;8.00;99.90;;;;;;5026482;28;20414;-86
2022/04/25 08:33:56;;;;;;;18.63;11.95;;;8.00;99.90;;;;;;5033044;28;20129;-87
2022/04/25 08:36:23;;;;;;;22.48;12.82;;;8.00;99.90;;;;;;5037508;28;20052;-88
2022/04/25 08:38:49;;;;;;;18.17;11.85;;;8.00;99.90;;;;;;5037727;28;20041;-87
2022/04/25 08:41:17;;;;;;;21.98;12.65;;;8.00;99.90;;;;;;5038410;28;20045;-88
2022/04/25 08:43:51;;;;;;;27.02;12.82;;;8.00;99.90;;;;;;5036634;28;20037;-86
2022/04/25 08:46:17;;;;;;;22.38;13.30;;;8.00;99.90;;;;;;5055055;28;20053;-86
2022/04/25 08:48:44;;;;;;;18.30;12.23;;;8.10;99.90;;;;;;5026207;28;20056;-87
2022/04/25 08:51:11;;;;;;;19.35;12.93;;;8.10;99.90;;;;;;5038325;28;20080;-88
2022/04/25 08:53:39;;;;;;;20.42;11.95;;;8.20;99.90;;;;;;5058965;28;20490;-89
2022/04/25 08:56:09;;;;;;;22.65;12.18;;;8.30;99.90;;;;;;5059391;28;20128;-87
2022/04/25 08:58:40;;;;;;;24.33;13.40;;;8.30;99.90;;;;;;5017650;28;20108;-88
2022/04/25 09:01:26;;;;;;;;;;;8.40;99.90;;;;;;5053068;28;20081;-87
2022/04/25 09:03:52;;;;;;;18.90;12.20;;;8.30;99.90;;;;;;5065132;28;19920;-88
2022/04/25 09:06:17;;;;;;;24.05;13.85;;;8.30;99.90;;;;;;5027532;28;20057;-87
2022/04/25 09:08:43;;;;;;;23.73;14.60;;;8.30;99.90;;;;;;5036784;28;20041;-85
2022/04/25 09:13:55;;;;;;;24.65;14.30;;;8.30;99.90;;;;;;5035725;28;20056;-84
2022/04/25 09:16:20;;;;;;;27.05;14.90;;;8.30;99.90;;;;;;5036917;28;20048;-84
2022/04/25 09:18:46;;;;;;;25.33;14.50;;;8.30;99.90;;;;;;5036470;28;20169;-85
2022/04/25 09:21:15;;;;;;;28.45;15.23;;;8.30;99.90;;;;;;5071650;28;20502;-84
2022/04/25 09:23:41;;;;;;;25.25;14.73;;;8.30;99.90;;;;;;5039067;28;20053;-84
2022/04/25 09:26:17;;;;;;;25.90;15.82;;;8.40;99.90;;;;;;5055244;28;20056;-85
2022/04/25 09:28:55;;;;;;;26.00;16.25;;;8.40;99.90;;;;;;5056176;28;20053;-85
2022/04/25 09:31:22;;;;;;;27.73;15.57;;;8.50;99.90;;;;;;5040191;28;20081;-85
2022/04/25 09:33:49;;;;;;;26.73;16.52;;;8.60;99.90;;;;;;5036327;28;20049;-84
2022/04/25 09:36:15;;;;;;;27.27;15.93;;;8.60;99.90;;;;;;5031525;28;20432;-85
2022/04/25 09:38:42;;;;;;;35.35;17.30;;;8.60;99.90;;;;;;5041034;28;20044;-86
2022/04/25 09:41:11;;;;;;;31.65;17.40;;;8.70;99.90;;;;;;5047536;28;20647;-86
2022/04/25 09:43:39;;;;;;;27.85;15.40;;;8.90;99.90;;;;;;5056803;28;20514;-85
2022/04/25 09:46:15;;;;;;;26.88;15.77;;;8.80;99.90;;;;;;5031602;28;20049;-85
2022/04/25 09:49:03;;;;;;;27.70;16.45;;;8.90;99.90;;;;;;5024264;28;20419;-86
2022/04/25 09:51:29;;;;;;;27.35;14.77;;;8.90;99.90;;;;;;5038523;28;20045;-84
2022/04/25 09:53:55;;;;;;;27.98;16.90;;;9.00;99.90;;;;;;5061329;28;20078;-85
2022/04/25 09:56:26;;;;;;;25.35;15.65;;;9.00;99.90;;;;;;5075444;28;20045;-85
2022/04/25 09:59:03;;;;;;;24.80;14.75;;;9.10;99.90;;;;;;5058419;28;20060;-86
2022/04/25 10:01:30;;;;;;;23.45;14.88;;;9.10;99.90;;;;;;5059954;28;20109;-85
2022/04/25 10:03:56;;;;;;;25.02;15.50;;;9.10;99.90;;;;;;5057390;28;20580;-87
2022/04/25 10:06:23;;;;;;;22.45;15.35;;;9.10;99.90;;;;;;4997461;28;20085;-85
2022/04/25 10:08:50;;;;;;;22.30;14.38;;;9.20;99.90;;;;;;5025765;28;20048;-85
2022/04/25 10:11:19;;;;;;;23.80;14.32;;;9.30;99.90;;;;;;5053061;28;20045;-85
2022/04/25 10:13:46;;;;;;;19.98;13.75;;;9.40;99.90;;;;;;5048157;28;20045;-86
2022/04/25 10:16:12;;;;;;;18.45;12.35;;;9.60;99.90;;;;;;5040909;28;20118;-86
2022/04/25 10:18:39;;;;;;;16.90;12.50;;;9.80;99.90;;;;;;5043041;28;20466;-86
2022/04/25 10:21:07;;;;;;;16.05;11.57;;;9.80;99.90;;;;;;5071770;28;20091;-85
2022/04/25 10:23:33;;;;;;;20.92;11.55;;;9.90;99.90;;;;;;5055131;28;20076;-84
2022/04/25 10:26:00;;;;;;;17.23;11.98;;;9.90;99.90;;;;;;5072613;28;20141;-85
2022/04/25 10:28:43;;;;;;;17.83;11.60;;;9.90;99.90;;;;;;5068505;28;20045;-86
2022/04/25 10:31:14;;;;;;;17.75;11.10;;;9.80;99.90;;;;;;5035233;28;20049;-86
2022/04/25 10:34:06;;;;;;;17.63;11.13;;;9.80;99.90;;;;;;5032221;28;20044;-86
2022/04/25 10:36:38;;;;;;;16.42;10.70;;;9.80;99.90;;;;;;5031648;28;20410;-85
2022/04/25 10:39:22;;;;;;;16.48;10.93;;;9.80;99.90;;;;;;5050545;28;20045;-85
2022/04/25 10:44:47;;;;;;;14.30;9.40;;;9.90;99.90;;;;;;5051169;28;20060;-85
2022/04/25 10:47:13;;;;;;;10.63;9.05;;;10.00;99.90;;;;;;5047760;28;20057;-84
2022/04/25 10:49:47;;;;;;;12.10;8.60;;;10.20;99.90;;;;;;5014670;28;20060;-85
2022/04/25 10:52:32;;;;;;;12.25;8.40;;;10.40;99.90;;;;;;5031543;28;20103;-88
2022/04/25 10:55:14;;;;;;;11.40;8.45;;;10.50;99.90;;;;;;5034957;28;20486;-86
2022/04/25 10:58:18;;;;;;;12.80;8.57;;;10.60;99.90;;;;;;5030409;28;20048;-85
2022/04/25 11:00:49;;;;;;;15.45;8.55;;;10.70;99.90;;;;;;5043208;28;20057;-88
2022/04/25 11:03:23;;;;;;;14.20;8.98;;;10.70;99.90;;;;;;5015361;28;20049;-86
2022/04/25 11:06:00;;;;;;;13.18;9.00;;;10.50;99.90;;;;;;5018606;28;20056;-87
2022/04/25 11:08:36;;;;;;;16.42;9.48;;;10.50;99.90;;;;;;5024740;28;20438;-87
2022/04/25 11:11:08;;;;;;;13.52;9.15;;;10.40;99.90;;;;;;5032652;28;20121;-86
2022/04/25 11:13:49;;;;;;;14.68;8.68;;;10.40;99.90;;;;;;5018278;28;20567;-86
2022/04/25 11:16:23;;;;;;;14.75;8.73;;;10.40;99.90;;;;;;5052446;28;20084;-86
2022/04/25 11:19:14;;;;;;;15.48;8.52;;;10.40;99.90;;;;;;5034548;28;20052;-86
2022/04/25 11:21:58;;;;;;;11.63;8.10;;;10.60;99.90;;;;;;5053442;28;20045;-86
2022/04/25 11:24:33;;;;;;;18.58;8.30;;;11.00;99.90;;;;;;5034861;28;20405;-86
2022/04/25 11:27:12;;;;;;;13.23;7.80;;;11.40;99.90;;;;;;5035203;28;20060;-86
2022/04/25 11:29:45;;;;;;;13.68;7.68;;;12.00;99.90;;;;;;5028192;28;20444;-86
2022/04/25 11:32:35;;;;;;;12.10;6.90;;;12.20;99.90;;;;;;5034689;28;20048;-86
2022/04/25 11:35:04;;;;;;;12.25;7.32;;;12.60;99.90;;;;;;5018365;28;20135;-87
2022/04/25 11:37:33;;;;;;;15.30;6.93;;;13.10;99.90;;;;;;5026945;28;20107;-87
2022/04/25 11:40:03;;;;;;;9.23;6.25;;;13.80;99.90;;;;;;5052105;28;20045;-86
2022/04/25 11:42:31;;;;;;;9.23;6.10;;;14.30;99.90;;;;;;5023492;28;20041;-86
2022/04/25 11:44:58;;;;;;;9.63;5.80;;;14.50;99.90;;;;;;5021136;28;20052;-86
2022/04/25 11:47:24;;;;;;;9.25;6.65;;;14.60;99.90;;;;;;5039611;28;20386;-87
2022/04/25 11:50:02;;;;;;;11.60;6.10;;;14.50;99.90;;;;;;5052193;28;20399;-87
2022/04/25 11:52:28;;;;;;;9.75;5.93;;;14.30;99.90;;;;;;5052309;28;20048;-85
2022/04/25 11:54:55;;;;;;;7.90;5.75;;;14.10;99.90;;;;;;5052132;28;20380;-87
2022/04/25 11:57:20;;;;;;;10.65;6.75;;;13.90;99.90;;;;;;5051974;28;20052;-86
2022/04/25 11:59:46;;;;;;;9.55;5.80;;;13.70;99.90;;;;;;5033840;28;20418;-87
2022/04/25 12:02:12;;;;;;;10.68;6.00;;;13.70;99.90;;;;;;5052315;28;20052;-87
2022/04/25 12:04:39;;;;;;;9.85;6.60;;;13.70;99.90;;;;;;5052330;28;20056;-87
2022/04/25 12:07:09;;;;;;;10.82;6.63;;;13.80;99.90;;;;;;5013931;28;20407;-86
2022/04/25 12:17:52;;;;;;;8.57;6.10;;;14.00;99.90;;;;;;5038261;28;20088;-86
2022/04/25 12:20:29;;;;;;;7.10;5.95;;;14.00;99.90;;;;;;5021878;28;20151;-86
2022/04/25 12:22:59;;;;;;;7.10;5.65;;;14.00;99.90;;;;;;5039629;28;20063;-86
2022/04/25 12:25:27;;;;;;;8.85;5.82;;;14.00;99.90;;;;;;5054197;28;20510;-87
2022/04/25 12:28:16;;;;;;;7.93;6.05;;;14.10;99.90;;;;;;5060180;28;20049;-88
2022/04/25 12:31:03;;;;;;;8.02;5.38;;;14.30;99.90;;;;;;5016573;28;20044;-87
2022/04/25 12:33:43;;;;;;;10.45;6.70;;;14.70;99.90;;;;;;5020978;28;20102;-87
2022/04/25 12:36:20;;;;;;;10.65;6.13;;;14.90;99.90;;;;;;5021360;28;20056;-87
2022/04/25 12:38:59;;;;;;;9.00;6.03;;;15.00;99.90;;;;;;5059068;28;20082;-89
2022/04/25 12:41:32;;;;;;;9.15;5.90;;;15.00;99.90;;;;;;5020126;28;20553;-87
2022/04/25 12:44:12;;;;;;;8.18;5.82;;;14.90;99.90;;;;;;5037055;28;20072;-87
2022/04/25 12:46:44;;;;;;;12.27;6.10;;;14.80;99.90;;;;;;5037570;28;20041;-90
2022/04/25 12:49:15;;;;;;;9.30;6.03;;;14.50;99.90;;;;;;5037956;28;20055;-87
2022/04/25 12:51:56;;;;;;;11.45;6.30;;;14.40;99.90;;;;;;5037254;28;20041;-87
2022/04/25 12:54:32;;;;;;;8.00;5.95;;;14.30;99.90;;;;;;5037698;28;20426;-87
2022/04/25 12:57:17;;;;;;;11.40;6.30;;;14.30;99.90;;;;;;5012940;28;20055;-87
2022/04/25 12:59:53;;;;;;;10.65;6.65;;;14.30;99.90;;;;;;5021086;28;20037;-87
2022/04/25 13:02:20;;;;;;;8.85;6.43;;;14.50;99.90;;;;;;5037217;28;20045;-87
2022/04/25 13:05:07;;;;;;;9.95;6.80;;;14.60;99.90;;;;;;5037122;28;20053;-87
2022/04/25 13:07:37;;;;;;;10.07;6.75;;;14.50;99.90;;;;;;5047851;28;20133;-87
2022/04/25 13:10:05;;;;;;;11.23;7.43;;;14.30;99.90;;;;;;5037258;28;20125;-87
2022/04/25 13:12:42;;;;;;;12.55;7.30;;;14.10;99.90;;;;;;5054614;28;20041;-87
2022/04/25 13:15:12;;;;;;;10.23;7.25;;;13.80;99.90;;;;;;5054626;28;20041;-88
2022/04/25 13:17:38;;;;;;;13.20;7.68;;;13.50;99.90;;;;;;5037157;28;20088;-88
2022/04/25 13:20:09;;;;;;;12.48;8.18;;;13.30;99.90;;;;;;5020429;28;20045;-86
2022/04/25 13:22:35;;;;;;;12.60;8.70;;;12.90;99.90;;;;;;5054451;28;20056;-87